Tiguidou — FAA6977 — position and weather

sailwx.info

Track history (hours):
 
Tides and Currents Weather Stations Pressure Air Temp Water Temp Dewpoint Dewpoint Depression Visibility Wind Speed Wind Dir Waves Ship Positions

Tiguidou

Last reported at 2018-Jun-15 16:43 UTC. Time now 2018-Jun-18 06:00 UTC.
Position N 48°20' W 004°22'.

Length 10 m.

Type: Sailing vessel. MMSI: 227148090.

Date/timePositionNaut miles runAvg speedWind from/ knotsBaromVisibWave heightAir tempDewpointWater temp
2018-Jun-15 16:43N 48°20' W 004°22'1 3.9
2018-Jun-15 16:21N 48°19' W 004°23'2 4.4
2018-Jun-15 16:01N 48°19' W 004°26'2 4.3
2018-Jun-15 15:30N 48°20' W 004°28'2 4.7
2018-Jun-15 14:59N 48°23' W 004°30'0 0.1
2018-Jun-15 14:30N 48°23' W 004°30'3 5.2
2018-Jun-15 14:00N 48°21' W 004°33'3 6.8
2018-Jun-15 13:30N 48°19' W 004°36'2 4.9
2018-Jun-15 13:00N 48°17' W 004°38'1 0.4
2018-Jun-15 09:48N 48°16' W 004°37'1 2.4
2018-Jun-15 09:30N 48°15' W 004°38'2 4.4
2018-Jun-15 09:00N 48°17' W 004°38'3 5.3
2018-Jun-15 08:30N 48°19' W 004°35'3 6.2
2018-Jun-15 08:00N 48°21' W 004°31'2 3.9
2018-Jun-15 07:28N 48°23' W 004°29'1 1.6
2018-Jun-15 07:00N 48°22' W 004°29'3 5.6
2018-Jun-15 06:30N 48°19' W 004°27'  
Track history (hours):
 
Tides and Currents Weather Stations Pressure Air Temp Water Temp Dewpoint Dewpoint Depression Visibility Wind Speed Wind Dir Waves Ship Positions

Tiguidou

Last reported at 2018-Jun-15 16:43 UTC. Time now 2018-Jun-18 06:00 UTC.
Position N 48°20' W 004°22'.

Length 10 m.

Type: Sailing vessel. MMSI: 227148090.

Date/timePositionNaut miles runAvg speedWind from/ knotsBaromVisibWave heightAir tempDewpointWater temp
2018-Jun-15 16:43N 48°20' W 004°22'1 3.9
2018-Jun-15 16:21N 48°19' W 004°23'2 4.4
2018-Jun-15 16:01N 48°19' W 004°26'2 4.3
2018-Jun-15 15:30N 48°20' W 004°28'2 4.7
2018-Jun-15 14:59N 48°23' W 004°30'0 0.1
2018-Jun-15 14:30N 48°23' W 004°30'3 5.2
2018-Jun-15 14:00N 48°21' W 004°33'3 6.8
2018-Jun-15 13:30N 48°19' W 004°36'2 4.9
2018-Jun-15 13:00N 48°17' W 004°38'1 0.4
2018-Jun-15 09:48N 48°16' W 004°37'1 2.4
2018-Jun-15 09:30N 48°15' W 004°38'2 4.4
2018-Jun-15 09:00N 48°17' W 004°38'3 5.3
2018-Jun-15 08:30N 48°19' W 004°35'3 6.2
2018-Jun-15 08:00N 48°21' W 004°31'2 3.9
2018-Jun-15 07:28N 48°23' W 004°29'1 1.6
2018-Jun-15 07:00N 48°22' W 004°29'3 5.6
2018-Jun-15 06:30N 48°19' W 004°27'  

Dump ship's entire track history